Goodwine, Illinois
Current Conditions -  °F | °C
As of 11:10 AM on Sunday 21 Dec 2014 (Local Time) from KTIP Reporting Station
Overcast Overcast  
Wind Chill: 27°   Ceiling: 3500
Heat Index: 36°   Visibility: 7mi
Dew Point: 30°   Wind: 14mph
Humidity: 80%   Direction: 170°S
Pressure: 30.2"   Gusts: NA
Location:  40.57°N, 87.78°W
Report Text: KTIP 211710Z AUTO 17012KT 7SM OVC035 02/M01 A3020 RMK AO2 T00221009
Loading
Personal Weather Stations






























Interactive Weather Map New forecast layout! Learn more

10-Day Weather Forecast

Advertisements
Track Severe Weather on mobile